AAL1449 KDFW-KSAT
Flight info
| Callsign | AAL1449 |
|---|---|
| Flight time | N/A |
| Altitude | 34000 |
| Route | JASPA7 WINDU QERVO3 |
| Aircraft | B38M/M-SDE1FGHILORVWXY/HB1 |
Departure
| Time | 2026-05-07 19:53 |
|---|---|
| Airport | Dallas Fort Worth International Airport (KDFW) |
Arrival
| Time | N/A |
|---|---|
| Airport | San Antonio International Airport (KSAT) |
| Time | Latitude | Longitude | Altitude | Speed | Heading |
|---|---|---|---|---|---|
| 2026-05-07 19:39 | 32.90262 | -97.03489 | 589 ft | 0 kts | 206° |
| 2026-05-07 19:42 | 32.90257 | -97.03492 | 589 ft | 2 kts | 206° |
| 2026-05-07 19:42 | 32.90234 | -97.03505 | 589 ft | 5 kts | 206° |
| 2026-05-07 19:42 | 32.90193 | -97.03528 | 589 ft | 8 kts | 204° |
| 2026-05-07 19:42 | 32.90143 | -97.03535 | 589 ft | 3 kts | 148° |
| 2026-05-07 19:43 | 32.90133 | -97.03504 | 589 ft | 5 kts | 97° |
| 2026-05-07 19:43 | 32.90132 | -97.03483 | 589 ft | 7 kts | 91° |
| 2026-05-07 19:43 | 32.90132 | -97.03461 | 589 ft | 8 kts | 91° |
| 2026-05-07 19:43 | 32.90132 | -97.03382 | 589 ft | 11 kts | 88° |
| 2026-05-07 19:44 | 32.90082 | -97.03317 | 588 ft | 13 kts | 170° |
| 2026-05-07 19:44 | 32.89979 | -97.03314 | 588 ft | 16 kts | 179° |
| 2026-05-07 19:44 | 32.89955 | -97.03314 | 588 ft | 17 kts | 179° |
| 2026-05-07 19:44 | 32.89829 | -97.03315 | 588 ft | 19 kts | 180° |
| 2026-05-07 19:45 | 32.89686 | -97.03316 | 588 ft | 22 kts | 180° |
| 2026-05-07 19:45 | 32.89524 | -97.03316 | 588 ft | 25 kts | 180° |
| 2026-05-07 19:45 | 32.89340 | -97.03318 | 586 ft | 28 kts | 180° |
| 2026-05-07 19:45 | 32.89136 | -97.03319 | 585 ft | 30 kts | 180° |
| 2026-05-07 19:46 | 32.88921 | -97.03320 | 585 ft | 32 kts | 180° |
| 2026-05-07 19:46 | 32.88704 | -97.03321 | 585 ft | 25 kts | 180° |
| 2026-05-07 19:46 | 32.88610 | -97.03328 | 584 ft | 10 kts | 220° |
| 2026-05-07 19:46 | 32.88600 | -97.03411 | 585 ft | 11 kts | 269° |
| 2026-05-07 19:47 | 32.88601 | -97.03509 | 586 ft | 13 kts | 270° |
| 2026-05-07 19:47 | 32.88605 | -97.03625 | 587 ft | 15 kts | 273° |
| 2026-05-07 19:47 | 32.88604 | -97.03746 | 591 ft | 14 kts | 269° |
| 2026-05-07 19:47 | 32.88604 | -97.03841 | 600 ft | 8 kts | 270° |
| 2026-05-07 19:48 | 32.88604 | -97.03881 | 603 ft | 3 kts | 270° |
| 2026-05-07 19:48 | 32.88604 | -97.03928 | 603 ft | 9 kts | 270° |
| 2026-05-07 19:48 | 32.88604 | -97.04041 | 603 ft | 18 kts | 270° |
| 2026-05-07 19:48 | 32.88605 | -97.04221 | 603 ft | 24 kts | 270° |
| 2026-05-07 19:49 | 32.88605 | -97.04447 | 595 ft | 30 kts | 271° |
| 2026-05-07 19:49 | 32.88607 | -97.04646 | 591 ft | 25 kts | 271° |
| 2026-05-07 19:49 | 32.88609 | -97.04824 | 590 ft | 12 kts | 270° |
| 2026-05-07 19:49 | 32.88576 | -97.04891 | 592 ft | 10 kts | 191° |
| 2026-05-07 19:50 | 32.88498 | -97.04893 | 592 ft | 12 kts | 182° |
| 2026-05-07 19:50 | 32.88402 | -97.04895 | 591 ft | 16 kts | 178° |
| 2026-05-07 19:50 | 32.88286 | -97.04894 | 592 ft | 18 kts | 180° |
| 2026-05-07 19:50 | 32.88158 | -97.04896 | 592 ft | 20 kts | 181° |
| 2026-05-07 19:51 | 32.88016 | -97.04896 | 590 ft | 17 kts | 179° |
| 2026-05-07 19:51 | 32.87932 | -97.04898 | 588 ft | 11 kts | 196° |
| 2026-05-07 19:51 | 32.87912 | -97.04985 | 588 ft | 13 kts | 272° |
| 2026-05-07 19:51 | 32.87933 | -97.05083 | 590 ft | 12 kts | 329° |
| 2026-05-07 19:52 | 32.88018 | -97.05090 | 592 ft | 14 kts | 1° |
| 2026-05-07 19:52 | 32.88228 | -97.05089 | 594 ft | 63 kts | 0° |
| 2026-05-07 19:52 | 32.88920 | -97.05086 | 590 ft | 132 kts | 0° |
| 2026-05-07 19:52 | 32.89989 | -97.05080 | 807 ft | 166 kts | 1° |
| 2026-05-07 19:53 | 32.91170 | -97.05107 | 1531 ft | 173 kts | 360° |
| 2026-05-07 19:53 | 32.92415 | -97.05136 | 2186 ft | 188 kts | 359° |
| 2026-05-07 19:53 | 32.93786 | -97.05201 | 2726 ft | 208 kts | 356° |
| 2026-05-07 19:53 | 32.95261 | -97.05660 | 3119 ft | 231 kts | 342° |
| 2026-05-07 19:54 | 32.96844 | -97.06328 | 3774 ft | 244 kts | 341° |
| 2026-05-07 19:54 | 32.98430 | -97.06995 | 4844 ft | 246 kts | 340° |
| 2026-05-07 19:54 | 32.99413 | -97.07581 | 5265 ft | 256 kts | 324° |
| 2026-05-07 19:54 | 32.99894 | -97.08079 | 5583 ft | 256 kts | 313° |
| 2026-05-07 19:55 | 33.00760 | -97.09903 | 6611 ft | 257 kts | 287° |
| 2026-05-07 19:55 | 33.00912 | -97.12015 | 7501 ft | 262 kts | 267° |
| 2026-05-07 19:55 | 33.00804 | -97.14190 | 8440 ft | 264 kts | 268° |
| 2026-05-07 19:55 | 33.00692 | -97.16375 | 9396 ft | 265 kts | 266° |
| 2026-05-07 19:56 | 33.00498 | -97.18611 | 10114 ft | 276 kts | 265° |
| 2026-05-07 19:56 | 33.00281 | -97.20945 | 10651 ft | 293 kts | 264° |
| 2026-05-07 19:56 | 32.99865 | -97.23377 | 11139 ft | 310 kts | 248° |
| 2026-05-07 19:56 | 32.98616 | -97.25525 | 11873 ft | 321 kts | 227° |
| 2026-05-07 19:57 | 32.96991 | -97.27336 | 12831 ft | 321 kts | 226° |
| 2026-05-07 19:57 | 32.95071 | -97.28755 | 13725 ft | 333 kts | 206° |
| 2026-05-07 19:57 | 32.92757 | -97.29254 | 14602 ft | 348 kts | 187° |
| 2026-05-07 19:57 | 32.90332 | -97.29114 | 15420 ft | 355 kts | 185° |
| 2026-05-07 19:58 | 32.87817 | -97.28983 | 16209 ft | 359 kts | 185° |
| 2026-05-07 19:58 | 32.87214 | -97.28951 | 16397 ft | 360 kts | 184° |
| 2026-05-07 19:58 | 32.85310 | -97.28850 | 16947 ft | 364 kts | 185° |
| 2026-05-07 19:58 | 32.82800 | -97.28716 | 17670 ft | 368 kts | 185° |
| 2026-05-07 19:59 | 32.80234 | -97.28579 | 18410 ft | 371 kts | 185° |
| 2026-05-07 19:59 | 32.80031 | -97.28568 | 18467 ft | 371 kts | 185° |
| 2026-05-07 19:59 | 32.77725 | -97.28196 | 19083 ft | 385 kts | 171° |
| 2026-05-07 19:59 | 32.75178 | -97.27108 | 19819 ft | 393 kts | 167° |
| 2026-05-07 20:00 | 32.72594 | -97.25960 | 20450 ft | 398 kts | 167° |
| 2026-05-07 20:00 | 32.69995 | -97.24786 | 21087 ft | 402 kts | 167° |
| 2026-05-07 20:00 | 32.67370 | -97.23591 | 21686 ft | 406 kts | 167° |
| 2026-05-07 20:00 | 32.64720 | -97.22381 | 22254 ft | 410 kts | 167° |
| 2026-05-07 20:01 | 32.62038 | -97.21157 | 22828 ft | 413 kts | 168° |
| 2026-05-07 20:01 | 32.59345 | -97.19928 | 23368 ft | 417 kts | 168° |
| 2026-05-07 20:01 | 32.56616 | -97.18682 | 23892 ft | 421 kts | 168° |
| 2026-05-07 20:01 | 32.53867 | -97.17429 | 24416 ft | 424 kts | 168° |
| 2026-05-07 20:02 | 32.51106 | -97.16170 | 24946 ft | 427 kts | 168° |
| 2026-05-07 20:02 | 32.48362 | -97.14920 | 25480 ft | 429 kts | 168° |
| 2026-05-07 20:02 | 32.45562 | -97.13644 | 26010 ft | 431 kts | 169° |
| 2026-05-07 20:02 | 32.42763 | -97.12373 | 26504 ft | 431 kts | 169° |
| 2026-05-07 20:03 | 32.39943 | -97.11090 | 26949 ft | 434 kts | 169° |
| 2026-05-07 20:03 | 32.37118 | -97.09808 | 27446 ft | 436 kts | 169° |
| 2026-05-07 20:03 | 32.34285 | -97.08522 | 27926 ft | 437 kts | 169° |
| 2026-05-07 20:03 | 32.31438 | -97.07230 | 28367 ft | 439 kts | 169° |
| 2026-05-07 20:04 | 32.28543 | -97.06267 | 28782 ft | 422 kts | 184° |
| 2026-05-07 20:04 | 32.25680 | -97.06162 | 29138 ft | 412 kts | 191° |
| 2026-05-07 20:04 | 32.22785 | -97.06172 | 29396 ft | 417 kts | 190° |
| 2026-05-07 20:04 | 32.19873 | -97.06213 | 29848 ft | 418 kts | 191° |
| 2026-05-07 20:05 | 32.16963 | -97.06278 | 30236 ft | 420 kts | 191° |
| 2026-05-07 20:05 | 32.14040 | -97.06359 | 30645 ft | 421 kts | 191° |
| 2026-05-07 20:05 | 32.11110 | -97.06447 | 30998 ft | 422 kts | 192° |
| 2026-05-07 20:05 | 32.08159 | -97.06538 | 31331 ft | 425 kts | 191° |
| 2026-05-07 20:06 | 32.05191 | -97.06631 | 31661 ft | 427 kts | 192° |
| 2026-05-07 20:06 | 32.02212 | -97.06724 | 32080 ft | 428 kts | 192° |
| 2026-05-07 20:06 | 31.99245 | -97.06817 | 32576 ft | 426 kts | 192° |
| 2026-05-07 20:06 | 31.96291 | -97.06908 | 33046 ft | 424 kts | 191° |
| 2026-05-07 20:07 | 31.93338 | -97.07000 | 33446 ft | 425 kts | 191° |
| 2026-05-07 20:07 | 31.90427 | -97.07091 | 33908 ft | 423 kts | 191° |
| 2026-05-07 20:07 | 31.87493 | -97.07183 | 34106 ft | 423 kts | 191° |
| 2026-05-07 20:07 | 31.84557 | -97.07274 | 34108 ft | 419 kts | 191° |
| 2026-05-07 20:08 | 31.78734 | -97.07455 | 34110 ft | 418 kts | 192° |
| 2026-05-07 20:08 | 31.72915 | -97.07636 | 34110 ft | 418 kts | 191° |
| 2026-05-07 20:09 | 31.67092 | -97.07817 | 34116 ft | 419 kts | 191° |
| 2026-05-07 20:10 | 31.58380 | -97.08087 | 34120 ft | 419 kts | 191° |
| 2026-05-07 20:10 | 31.52625 | -97.08564 | 34099 ft | 402 kts | 204° |
| 2026-05-07 20:11 | 31.47334 | -97.10556 | 34112 ft | 400 kts | 206° |
| 2026-05-07 20:11 | 31.42042 | -97.12585 | 34116 ft | 400 kts | 206° |
| 2026-05-07 20:12 | 31.36760 | -97.14648 | 34120 ft | 400 kts | 206° |
| 2026-05-07 20:12 | 31.31471 | -97.16718 | 34121 ft | 400 kts | 206° |
| 2026-05-07 20:13 | 31.26231 | -97.18768 | 34119 ft | 399 kts | 206° |
| 2026-05-07 20:13 | 31.20947 | -97.20832 | 34118 ft | 401 kts | 206° |
| 2026-05-07 20:14 | 31.15652 | -97.22899 | 34120 ft | 401 kts | 206° |
| 2026-05-07 20:14 | 31.10359 | -97.24962 | 34123 ft | 401 kts | 206° |
| 2026-05-07 20:15 | 31.05068 | -97.27022 | 34129 ft | 402 kts | 206° |
| 2026-05-07 20:15 | 30.99767 | -97.29084 | 34131 ft | 402 kts | 206° |
| 2026-05-07 20:16 | 30.94452 | -97.31148 | 34130 ft | 403 kts | 206° |
| 2026-05-07 20:16 | 30.89132 | -97.33211 | 34126 ft | 403 kts | 206° |
| 2026-05-07 20:17 | 30.83849 | -97.35260 | 34129 ft | 403 kts | 205° |
| 2026-05-07 20:17 | 30.78526 | -97.37320 | 34129 ft | 402 kts | 206° |
| 2026-05-07 20:18 | 30.73214 | -97.39374 | 34138 ft | 403 kts | 205° |
| 2026-05-07 20:18 | 30.70552 | -97.40402 | 33998 ft | 401 kts | 205° |
| 2026-05-07 20:18 | 30.67903 | -97.41426 | 33139 ft | 403 kts | 205° |
| 2026-05-07 20:18 | 30.65234 | -97.42454 | 32349 ft | 404 kts | 205° |
| 2026-05-07 20:19 | 30.62577 | -97.43479 | 31669 ft | 402 kts | 205° |
| 2026-05-07 20:19 | 30.59925 | -97.44501 | 30939 ft | 400 kts | 205° |
| 2026-05-07 20:19 | 30.57258 | -97.45530 | 30167 ft | 409 kts | 205° |
| 2026-05-07 20:19 | 30.54524 | -97.46581 | 29489 ft | 418 kts | 204° |
| 2026-05-07 20:20 | 30.51748 | -97.47649 | 28916 ft | 420 kts | 204° |
| 2026-05-07 20:20 | 30.48971 | -97.48717 | 28308 ft | 421 kts | 204° |
| 2026-05-07 20:20 | 30.46199 | -97.49782 | 27697 ft | 418 kts | 204° |
| 2026-05-07 20:20 | 30.43445 | -97.50840 | 27087 ft | 415 kts | 204° |
| 2026-05-07 20:21 | 30.40716 | -97.51887 | 26484 ft | 412 kts | 204° |
| 2026-05-07 20:21 | 30.38059 | -97.52960 | 25855 ft | 404 kts | 209° |
| 2026-05-07 20:21 | 30.35656 | -97.54549 | 25198 ft | 395 kts | 216° |
| 2026-05-07 20:21 | 30.33307 | -97.56154 | 24677 ft | 390 kts | 215° |
| 2026-05-07 20:22 | 30.30987 | -97.57747 | 24117 ft | 385 kts | 216° |
| 2026-05-07 20:22 | 30.28699 | -97.59325 | 23566 ft | 380 kts | 216° |
| 2026-05-07 20:22 | 30.26437 | -97.60888 | 23025 ft | 376 kts | 216° |
| 2026-05-07 20:22 | 30.24198 | -97.62435 | 22469 ft | 373 kts | 215° |
| 2026-05-07 20:23 | 30.21986 | -97.63963 | 21940 ft | 369 kts | 215° |
| 2026-05-07 20:23 | 30.19794 | -97.65478 | 21414 ft | 365 kts | 215° |
| 2026-05-07 20:23 | 30.17617 | -97.66981 | 20892 ft | 362 kts | 214° |
| 2026-05-07 20:23 | 30.15488 | -97.68449 | 20383 ft | 358 kts | 214° |
| 2026-05-07 20:24 | 30.13359 | -97.69917 | 19887 ft | 355 kts | 214° |
| 2026-05-07 20:24 | 30.11256 | -97.71367 | 19387 ft | 351 kts | 214° |
| 2026-05-07 20:24 | 30.09166 | -97.72807 | 18925 ft | 347 kts | 214° |
| 2026-05-07 20:24 | 30.07107 | -97.74225 | 18466 ft | 343 kts | 214° |
| 2026-05-07 20:25 | 30.05065 | -97.75630 | 17986 ft | 339 kts | 213° |
| 2026-05-07 20:25 | 30.03046 | -97.77019 | 17528 ft | 336 kts | 213° |
| 2026-05-07 20:25 | 30.01048 | -97.78393 | 17073 ft | 333 kts | 213° |
| 2026-05-07 20:25 | 29.99058 | -97.79761 | 16569 ft | 336 kts | 213° |
| 2026-05-07 20:26 | 29.97713 | -97.80686 | 16245 ft | 341 kts | 213° |
| 2026-05-07 20:26 | 29.95665 | -97.82092 | 15762 ft | 345 kts | 213° |
| 2026-05-07 20:26 | 29.93588 | -97.83517 | 15310 ft | 347 kts | 213° |
| 2026-05-07 20:26 | 29.91552 | -97.84950 | 14967 ft | 343 kts | 218° |
| 2026-05-07 20:27 | 29.89895 | -97.86917 | 14295 ft | 344 kts | 237° |
| 2026-05-07 20:27 | 29.88859 | -97.89381 | 13891 ft | 339 kts | 247° |
| 2026-05-07 20:27 | 29.87978 | -97.91872 | 13526 ft | 334 kts | 248° |
| 2026-05-07 20:27 | 29.87130 | -97.94347 | 13080 ft | 331 kts | 248° |
| 2026-05-07 20:28 | 29.86292 | -97.96797 | 12736 ft | 326 kts | 249° |
| 2026-05-07 20:28 | 29.85480 | -97.99200 | 12479 ft | 319 kts | 249° |
| 2026-05-07 20:28 | 29.84679 | -98.01579 | 12249 ft | 319 kts | 248° |
| 2026-05-07 20:28 | 29.83520 | -98.03738 | 11937 ft | 318 kts | 227° |
| 2026-05-07 20:29 | 29.81902 | -98.05440 | 11674 ft | 312 kts | 224° |
| 2026-05-07 20:29 | 29.80297 | -98.07095 | 11416 ft | 306 kts | 223° |
| 2026-05-07 20:29 | 29.78717 | -98.08709 | 11152 ft | 301 kts | 223° |
| 2026-05-07 20:29 | 29.77160 | -98.10288 | 10898 ft | 295 kts | 223° |
| 2026-05-07 20:30 | 29.75630 | -98.11834 | 10645 ft | 290 kts | 223° |
| 2026-05-07 20:30 | 29.74126 | -98.13351 | 10405 ft | 285 kts | 223° |
| 2026-05-07 20:30 | 29.72645 | -98.14843 | 10163 ft | 280 kts | 223° |
| 2026-05-07 20:30 | 29.71189 | -98.16308 | 9920 ft | 276 kts | 222° |
| 2026-05-07 20:31 | 29.69757 | -98.17750 | 9695 ft | 273 kts | 222° |
| 2026-05-07 20:31 | 29.68323 | -98.19192 | 9473 ft | 274 kts | 222° |
| 2026-05-07 20:31 | 29.66908 | -98.20615 | 9241 ft | 275 kts | 222° |
| 2026-05-07 20:31 | 29.65468 | -98.22061 | 9019 ft | 275 kts | 222° |
| 2026-05-07 20:32 | 29.64028 | -98.23508 | 8773 ft | 275 kts | 222° |
| 2026-05-07 20:32 | 29.62588 | -98.24955 | 8532 ft | 274 kts | 221° |
| 2026-05-07 20:32 | 29.61154 | -98.26393 | 8338 ft | 273 kts | 221° |
| 2026-05-07 20:32 | 29.59724 | -98.27828 | 8107 ft | 273 kts | 221° |
| 2026-05-07 20:33 | 29.58300 | -98.29257 | 7885 ft | 272 kts | 221° |
| 2026-05-07 20:33 | 29.56873 | -98.30687 | 7648 ft | 272 kts | 221° |
| 2026-05-07 20:33 | 29.55449 | -98.32114 | 7393 ft | 271 kts | 221° |
| 2026-05-07 20:33 | 29.54038 | -98.33527 | 7181 ft | 267 kts | 221° |
| 2026-05-07 20:34 | 29.52652 | -98.34914 | 6959 ft | 262 kts | 221° |
| 2026-05-07 20:34 | 29.51286 | -98.36282 | 6727 ft | 258 kts | 221° |
| 2026-05-07 20:34 | 29.49949 | -98.37623 | 6540 ft | 253 kts | 221° |
| 2026-05-07 20:34 | 29.48650 | -98.38921 | 6441 ft | 243 kts | 221° |
| 2026-05-07 20:35 | 29.47396 | -98.40174 | 6336 ft | 235 kts | 220° |
| 2026-05-07 20:35 | 29.46154 | -98.41374 | 6082 ft | 233 kts | 220° |
| 2026-05-07 20:35 | 29.44911 | -98.42578 | 5850 ft | 231 kts | 220° |
| 2026-05-07 20:35 | 29.43684 | -98.43762 | 5532 ft | 233 kts | 220° |
| 2026-05-07 20:36 | 29.42451 | -98.44952 | 5261 ft | 231 kts | 220° |
| 2026-05-07 20:36 | 29.41240 | -98.46121 | 5020 ft | 229 kts | 219° |
| 2026-05-07 20:36 | 29.40040 | -98.47278 | 4998 ft | 224 kts | 219° |
| 2026-05-07 20:36 | 29.38841 | -98.48437 | 4986 ft | 226 kts | 219° |
| 2026-05-07 20:37 | 29.37632 | -98.49603 | 4964 ft | 227 kts | 220° |
| 2026-05-07 20:37 | 29.36452 | -98.50742 | 4949 ft | 228 kts | 220° |
| 2026-05-07 20:37 | 29.35238 | -98.51912 | 4965 ft | 228 kts | 220° |
| 2026-05-07 20:37 | 29.34476 | -98.52700 | 4944 ft | 228 kts | 226° |
| 2026-05-07 20:38 | 29.33789 | -98.53908 | 4841 ft | 227 kts | 252° |
| 2026-05-07 20:38 | 29.33733 | -98.55695 | 4478 ft | 228 kts | 288° |
| 2026-05-07 20:38 | 29.34577 | -98.57170 | 4266 ft | 220 kts | 322° |
| 2026-05-07 20:38 | 29.35928 | -98.57886 | 4137 ft | 211 kts | 352° |
| 2026-05-07 20:39 | 29.37338 | -98.57802 | 4001 ft | 199 kts | 14° |
| 2026-05-07 20:39 | 29.38686 | -98.57606 | 3821 ft | 193 kts | 2° |
| 2026-05-07 20:39 | 29.40006 | -98.57599 | 3641 ft | 187 kts | 1° |
| 2026-05-07 20:39 | 29.41270 | -98.57457 | 3466 ft | 184 kts | 18° |
| 2026-05-07 20:40 | 29.42392 | -98.56805 | 3270 ft | 178 kts | 36° |
| 2026-05-07 20:40 | 29.43308 | -98.55937 | 3095 ft | 161 kts | 41° |
| 2026-05-07 20:40 | 29.44095 | -98.55139 | 2940 ft | 144 kts | 40° |
| 2026-05-07 20:40 | 29.44838 | -98.54391 | 2667 ft | 141 kts | 40° |
| 2026-05-07 20:41 | 29.45568 | -98.53654 | 2479 ft | 140 kts | 40° |
| 2026-05-07 20:41 | 29.46300 | -98.52914 | 2331 ft | 141 kts | 39° |
| 2026-05-07 20:41 | 29.47055 | -98.52191 | 2153 ft | 141 kts | 40° |
| 2026-05-07 20:41 | 29.47790 | -98.51460 | 1960 ft | 143 kts | 41° |
| 2026-05-07 20:42 | 29.48544 | -98.50714 | 1782 ft | 144 kts | 40° |
| 2026-05-07 20:42 | 29.49308 | -98.49975 | 1653 ft | 144 kts | 40° |
| 2026-05-07 20:42 | 29.50066 | -98.49228 | 1470 ft | 144 kts | 41° |
| 2026-05-07 20:42 | 29.50814 | -98.48470 | 1250 ft | 144 kts | 41° |
| 2026-05-07 20:43 | 29.51568 | -98.47750 | 1023 ft | 144 kts | 40° |
| 2026-05-07 20:43 | 29.52256 | -98.47052 | 861 ft | 144 kts | 39° |
| 2026-05-07 20:43 | 29.52690 | -98.46632 | 801 ft | 135 kts | 42° |
| 2026-05-07 20:43 | 29.52972 | -98.46369 | 801 ft | 122 kts | 33° |